Time;durP1;ratioP1;P1;durP2;ratioP2;P2;SDS_P1;SDS_P2;PMS_P1;PMS_P2;Temp;Humidity;BMP_temperature;BMP_pressure;BME280_temperature;BME280_humidity;BME280_pressure;Samples;Min_cycle;Max_cycle;Signal;HPM_P1;HPM_P2
2023/03/04 00:01:11;;;;;;;15.05;11.63;;;;;;;17.98;44.57;99996.31;5091811;28;20515;-67
2023/03/04 00:03:37;;;;;;;15.13;11.38;;;;;;;17.97;44.37;100002.53;5091979;28;20111;-68
2023/03/04 00:06:02;;;;;;;12.52;9.93;;;;;;;17.96;44.32;99999.03;5091857;28;20147;-65
2023/03/04 00:08:28;;;;;;;14.43;11.57;;;;;;;17.93;44.32;99999.13;5091650;28;20530;-66
2023/03/04 00:10:53;;;;;;;15.35;11.07;;;;;;;17.96;44.34;99999.03;5091794;28;20036;-67
2023/03/04 00:13:20;;;;;;;13.90;10.93;;;;;;;17.93;44.15;100003.56;5091719;28;20028;-67
2023/03/04 00:15:47;;;;;;;12.90;11.05;;;;;;;17.93;44.40;99999.13;5091896;28;20077;-67
2023/03/04 00:18:12;;;;;;;12.48;10.02;;;;;;;17.93;44.48;99999.13;5091822;28;20052;-68
2023/03/04 00:20:37;;;;;;;16.45;11.60;;;;;;;17.92;44.37;100001.84;5091140;28;20101;-68
2023/03/04 00:23:03;;;;;;;13.15;10.68;;;;;;;17.89;44.50;100002.81;5091314;28;20100;-67
2023/03/04 00:25:28;;;;;;;14.13;10.38;;;;;;;17.92;44.41;100005.34;5091183;28;20016;-67
2023/03/04 00:27:54;;;;;;;13.98;11.18;;;;;;;17.86;44.32;100002.94;5091770;28;20034;-67
2023/03/04 00:30:19;;;;;;;13.82;10.88;;;;;;;17.86;44.05;100002.94;5091879;28;20491;-68
2023/03/04 00:32:45;;;;;;;13.25;10.63;;;;;;;17.90;44.10;100003.66;5091750;28;20048;-67
2023/03/04 00:35:10;;;;;;;13.60;11.20;;;;;;;17.86;44.36;100008.22;5091149;28;20074;-68
2023/03/04 00:37:36;;;;;;;13.35;10.30;;;;;;;17.85;44.26;100006.50;5094667;28;20059;-67
2023/03/04 00:40:01;;;;;;;15.77;11.57;;;;;;;17.84;44.12;100005.63;5095560;28;20063;-67
2023/03/04 00:42:26;;;;;;;13.48;10.20;;;;;;;17.82;44.29;100002.19;5095466;28;20077;-67
2023/03/04 00:44:52;;;;;;;14.13;11.50;;;;;;;17.83;44.28;100008.34;5094261;28;20017;-68
2023/03/04 00:47:17;;;;;;;12.38;10.65;;;;;;;17.83;43.93;100011.00;5095356;28;20467;-66
2023/03/04 00:49:43;;;;;;;13.40;11.07;;;;;;;17.81;44.37;100002.25;5095049;28;20052;-68
2023/03/04 00:52:09;;;;;;;14.63;10.80;;;;;;;17.79;44.30;100012.91;5095517;28;20024;-68
2023/03/04 00:54:34;;;;;;;13.68;11.02;;;;;;;17.81;44.19;100005.75;5095479;28;20024;-67
2023/03/04 00:56:59;;;;;;;12.93;10.43;;;;;;;17.77;44.10;100009.44;5095081;28;20438;-67
2023/03/04 00:59:25;;;;;;;13.85;10.60;;;;;;;17.78;44.25;100005.88;5095274;28;20039;-67
2023/03/04 01:01:50;;;;;;;14.07;10.40;;;;;;;17.77;43.89;100000.69;5095069;28;20049;-66
2023/03/04 01:04:16;;;;;;;13.98;10.30;;;;;;;17.77;44.29;99998.88;5094810;28;20020;-67
2023/03/04 01:06:41;;;;;;;13.27;10.65;;;;;;;17.77;43.90;99998.03;5095170;28;20027;-67
2023/03/04 01:09:07;;;;;;;12.05;9.73;;;;;;;17.77;44.01;100003.31;5094996;28;20443;-67
2023/03/04 01:11:32;;;;;;;13.13;10.75;;;;;;;17.75;44.00;99991.94;5094970;28;20064;-67
2023/03/04 01:13:58;;;;;;;13.00;10.68;;;;;;;17.75;43.96;99989.28;5094778;28;20104;-67
2023/03/04 01:16:23;;;;;;;13.82;10.40;;;;;;;17.71;44.14;99992.06;5094770;28;20031;-68
2023/03/04 01:18:49;;;;;;;12.23;9.70;;;;;;;17.68;43.99;99984.25;5094487;28;20493;-67
2023/03/04 01:21:14;;;;;;;11.73;9.80;;;;;;;17.70;44.30;99987.72;5094892;28;20498;-68
2023/03/04 01:23:40;;;;;;;12.35;9.48;;;;;;;17.65;43.84;99994.94;5094572;28;20028;-67
2023/03/04 01:26:05;;;;;;;13.02;10.40;;;;;;;17.64;44.01;99993.22;5094832;28;20024;-67
2023/03/04 01:28:34;;;;;;;12.40;10.45;;;;;;;17.64;43.85;99995.88;5094721;28;20498;-68
2023/03/04 01:31:03;;;;;;;12.68;10.15;;;;;;;17.64;43.85;99987.97;5094563;28;20028;-68
2023/03/04 01:33:30;;;;;;;11.90;9.82;;;;;;;17.64;43.81;99987.97;5094278;28;20032;-68
2023/03/04 01:35:57;;;;;;;12.43;9.90;;;;;;;17.65;44.21;99987.03;5094401;28;20051;-66
2023/03/04 01:38:22;;;;;;;12.63;9.90;;;;;;;17.62;43.78;99984.50;5094560;28;20038;-67
2023/03/04 01:40:48;;;;;;;14.90;10.65;;;;;;;17.64;44.10;99979.16;5094249;28;20028;-67
2023/03/04 01:43:24;;;;;;;13.80;11.15;;;;;;;17.61;43.80;99972.22;5094253;28;20065;-66
2023/03/04 01:45:51;;;;;;;12.63;9.10;;;;;;;17.61;43.92;99976.63;5094315;28;20115;-67
2023/03/04 01:48:30;;;;;;;12.65;9.60;;;;;;;17.59;44.01;99974.06;5093766;28;20051;-67
2023/03/04 01:50:58;;;;;;;13.52;10.10;;;;;;;17.58;44.00;99967.94;5094031;28;20048;-68
2023/03/04 01:53:26;;;;;;;11.93;9.55;;;;;;;17.56;43.62;99969.78;5094293;28;20063;-67
2023/03/04 01:55:55;;;;;;;12.68;10.07;;;;;;;17.54;44.11;99965.47;5094085;28;20016;-67
2023/03/04 01:58:20;;;;;;;12.65;9.98;;;;;;;17.54;43.80;99965.47;5094133;28;20384;-67
2023/03/04 02:00:46;;;;;;;12.88;9.90;;;;;;;17.56;44.13;99963.63;5092853;28;20028;-67
2023/03/04 02:03:14;;;;;;;12.13;9.82;;;;;;;17.53;44.23;99961.97;5093540;28;20430;-67
2023/03/04 02:05:45;;;;;;;10.93;9.10;;;;;;;17.53;43.94;99953.19;5093966;28;20078;-68
2023/03/04 02:08:13;;;;;;;12.00;9.55;;;;;;;17.51;43.86;99952.38;5093680;28;20024;-67
2023/03/04 02:10:42;;;;;;;12.75;9.60;;;;;;;17.49;43.96;99956.88;5093912;28;20137;-67
2023/03/04 02:13:07;;;;;;;12.55;9.32;;;;;;;17.47;44.05;99950.81;5093709;28;20484;-68
2023/03/04 02:15:33;;;;;;;11.23;9.90;;;;;;;17.45;43.76;99951.69;5093607;28;20012;-66
2023/03/04 02:17:58;;;;;;;10.77;8.73;;;;;;;17.50;44.41;99948.03;5093480;28;20031;-68
2023/03/04 02:20:43;;;;;;;10.73;8.93;;;;;;;17.45;43.91;99949.06;5093750;28;20016;-66
2023/03/04 02:23:33;;;;;;;13.23;10.38;;;;;;;17.47;43.82;99945.53;5093666;28;20039;-67
2023/03/04 02:26:08;;;;;;;11.02;8.77;;;;;;;17.44;44.04;99944.69;5093660;28;20036;-67
2023/03/04 02:28:33;;;;;;;12.57;8.95;;;;;;;17.43;43.97;99940.34;5093433;28;20035;-68
2023/03/04 02:30:59;;;;;;;11.95;9.35;;;;;;;17.43;44.02;99945.63;5091719;28;20024;-66
2023/03/04 02:33:24;;;;;;;12.30;9.52;;;;;;;17.42;43.81;99941.28;5093491;28;20024;-67
2023/03/04 02:35:50;;;;;;;12.30;9.60;;;;;;;17.42;43.64;99937.75;5093133;28;20020;-67
2023/03/04 02:38:15;;;;;;;11.50;8.52;;;;;;;17.40;43.71;99937.84;5092232;28;20032;-67
2023/03/04 02:40:45;;;;;;;12.63;9.35;;;;;;;17.40;43.90;99937.84;5093442;28;20088;-68
2023/03/04 02:43:11;;;;;;;11.20;8.75;;;;;;;17.37;43.91;99930.03;5093328;28;20411;-67
2023/03/04 02:45:43;;;;;;;11.05;8.70;;;;;;;17.34;43.74;99934.56;5092880;28;20032;-70
2023/03/04 02:48:10;;;;;;;11.32;9.07;;;;;;;17.36;44.14;99935.38;5093214;28;20027;-67
2023/03/04 02:50:48;;;;;;;10.40;8.93;;;;;;;17.35;43.92;99926.59;5092916;28;20059;-67
2023/03/04 02:53:14;;;;;;;11.35;9.07;;;;;;;17.35;43.72;99917.81;5092975;28;20031;-67
2023/03/04 02:55:41;;;;;;;12.40;9.15;;;;;;;17.33;44.02;99924.94;5092758;28;20118;-68
2023/03/04 02:58:06;;;;;;;11.50;9.20;;;;;;;17.34;43.81;99921.38;5091753;28;20028;-68
2023/03/04 03:00:32;;;;;;;10.68;8.75;;;;;;;17.28;43.76;99911.91;5092110;28;20160;-67
2023/03/04 03:02:57;;;;;;;11.40;8.88;;;;;;;17.29;43.85;99916.28;5092807;28;20032;-67
2023/03/04 03:05:28;;;;;;;10.50;9.02;;;;;;;17.28;44.02;99918.06;5093008;28;20047;-67
2023/03/04 03:07:54;;;;;;;11.35;9.32;;;;;;;17.27;43.69;99918.09;5092566;28;20039;-68
2023/03/04 03:10:19;;;;;;;13.73;9.98;;;;;;;17.26;43.82;99919.91;5093013;28;20028;-67
2023/03/04 03:12:45;;;;;;;11.27;8.40;;;;;;;17.29;43.60;99929.47;5093209;28;20047;-68
2023/03/04 03:15:11;;;;;;;11.68;9.07;;;;;;;17.26;43.77;99929.59;5092726;28;20031;-67
2023/03/04 03:17:36;;;;;;;12.82;9.45;;;;;;;17.27;43.83;99926.03;5093047;28;20024;-67
2023/03/04 03:20:02;;;;;;;11.35;9.52;;;;;;;17.25;43.77;99919.97;5092860;28;20035;-68
2023/03/04 03:22:27;;;;;;;11.13;9.27;;;;;;;17.24;44.02;99926.16;5092601;28;20031;-68
2023/03/04 03:24:53;;;;;;;11.15;8.98;;;;;;;17.25;43.84;99919.97;5092508;28;20030;-68
2023/03/04 03:27:18;;;;;;;11.80;9.30;;;;;;;17.23;43.83;99914.72;5092552;28;20495;-68
2023/03/04 03:29:44;;;;;;;11.32;9.15;;;;;;;17.20;43.94;99916.63;5092011;28;20066;-67
2023/03/04 03:32:09;;;;;;;11.23;8.27;;;;;;;17.22;43.94;99906.88;5092493;28;20114;-65
2023/03/04 03:34:35;;;;;;;11.85;9.35;;;;;;;17.20;43.69;99912.22;5092421;28;20028;-66
2023/03/04 03:37:00;;;;;;;10.75;8.70;;;;;;;17.17;43.84;99910.56;5092418;28;20020;-66
2023/03/04 03:39:25;;;;;;;11.02;8.52;;;;;;;17.17;43.98;99913.19;5092419;28;20020;-66
2023/03/04 03:41:51;;;;;;;11.95;8.77;;;;;;;17.17;43.77;99909.69;5092215;28;20495;-66
2023/03/04 03:44:16;;;;;;;11.98;8.68;;;;;;;17.15;43.99;99917.66;5090578;28;20017;-68
2023/03/04 03:46:42;;;;;;;11.10;8.43;;;;;;;17.14;43.99;99918.56;5092407;28;20502;-66
2023/03/04 03:49:07;;;;;;;11.70;8.55;;;;;;;17.14;44.10;99918.56;5091998;28;21045;-67
2023/03/04 03:51:32;;;;;;;11.02;7.82;;;;;;;17.15;43.79;99914.19;5092141;28;20060;-67
2023/03/04 03:53:58;;;;;;;11.18;9.00;;;;;;;17.13;43.83;99914.22;5092356;28;20612;-67
2023/03/04 03:56:23;;;;;;;10.95;8.70;;;;;;;17.11;43.89;99912.56;5092135;28;20108;-67
2023/03/04 03:58:48;;;;;;;11.23;8.98;;;;;;;17.11;44.01;99909.94;5091825;28;20024;-68
2023/03/04 04:01:14;;;;;;;11.63;8.80;;;;;;;17.10;43.82;99913.50;5092200;28;20020;-67
2023/03/04 04:03:39;;;;;;;10.82;8.52;;;;;;;17.10;43.69;99911.69;5092250;28;20046;-67
2023/03/04 04:06:05;;;;;;;11.32;9.25;;;;;;;17.11;43.64;99921.34;5091986;28;20111;-67
2023/03/04 04:08:32;;;;;;;10.80;8.65;;;;;;;17.08;43.86;99921.44;5092135;28;20059;-67
2023/03/04 04:10:57;;;;;;;11.02;8.50;;;;;;;17.06;43.83;99912.75;5092380;28;20537;-67
2023/03/04 04:13:23;;;;;;;10.68;8.25;;;;;;;17.05;44.05;99916.31;5095580;28;20024;-67
2023/03/04 04:15:50;;;;;;;11.52;8.45;;;;;;;17.06;43.92;99912.75;5095632;28;20020;-68
2023/03/04 04:18:16;;;;;;;11.60;8.55;;;;;;;17.03;43.50;99908.44;5095371;28;20031;-68
2023/03/04 04:20:41;;;;;;;10.73;8.43;;;;;;;17.03;43.96;99912.84;5095118;28;20032;-68
2023/03/04 04:23:07;;;;;;;11.02;9.10;;;;;;;17.00;43.87;99913.78;5095831;28;20028;-68
2023/03/04 04:25:32;;;;;;;10.90;8.88;;;;;;;16.98;43.80;99914.75;5095172;28;20028;-68
2023/03/04 04:27:58;;;;;;;10.18;8.15;;;;;;;17.01;43.67;99904.09;5095272;28;20034;-68
2023/03/04 04:30:24;;;;;;;12.32;9.13;;;;;;;16.99;43.84;99903.28;5092824;28;20051;-68
2023/03/04 04:32:49;;;;;;;10.65;8.55;;;;;;;17.01;43.59;99901.47;5095909;28;20024;-69
2023/03/04 04:35:15;;;;;;;10.38;8.30;;;;;;;16.98;43.68;99898.94;5095120;28;20036;-66
2023/03/04 04:37:40;;;;;;;10.48;8.43;;;;;;;16.96;43.94;99896.38;5094812;28;20112;-68
2023/03/04 04:40:06;;;;;;;12.63;9.27;;;;;;;16.96;43.82;99896.38;5095314;28;20099;-67
2023/03/04 04:42:32;;;;;;;10.23;7.90;;;;;;;16.97;43.59;99897.22;5094801;28;20020;-67
2023/03/04 04:44:57;;;;;;;10.70;8.32;;;;;;;16.96;43.92;99901.66;5095058;28;20529;-67
2023/03/04 04:47:23;;;;;;;9.57;7.55;;;;;;;16.95;43.97;99904.34;5095116;28;20035;-67
2023/03/04 04:49:48;;;;;;;10.88;8.23;;;;;;;16.95;44.01;99902.53;5094682;28;20419;-66
2023/03/04 04:52:13;;;;;;;10.18;8.25;;;;;;;16.92;43.84;99903.50;5095066;28;20024;-69
2023/03/04 04:54:39;;;;;;;10.20;8.32;;;;;;;16.90;43.72;99902.72;5095320;28;20468;-67
2023/03/04 04:57:04;;;;;;;10.48;7.97;;;;;;;16.93;43.65;99901.75;5094714;28;20043;-66
2023/03/04 04:59:30;;;;;;;10.57;8.70;;;;;;;16.88;43.30;99901.94;5095210;28;20103;-67
2023/03/04 05:01:56;;;;;;;9.82;7.70;;;;;;;16.91;43.63;99904.44;5095331;28;20016;-67
2023/03/04 05:04:21;;;;;;;10.43;7.85;;;;;;;16.89;43.87;99906.28;5094963;28;20039;-66
2023/03/04 05:06:47;;;;;;;11.50;8.30;;;;;;;16.88;43.84;99904.56;5095019;28;20081;-66
2023/03/04 05:09:12;;;;;;;11.10;8.80;;;;;;;16.90;43.84;99908.00;5095074;28;20020;-67
2023/03/04 05:11:38;;;;;;;10.20;7.97;;;;;;;16.88;43.85;99901.94;5094676;28;20027;-66
2023/03/04 05:14:03;;;;;;;9.93;7.88;;;;;;;16.88;43.76;99904.56;5095044;28;20019;-66
2023/03/04 05:16:29;;;;;;;10.55;8.38;;;;;;;16.87;43.82;99910.75;5095022;28;20027;-66
2023/03/04 05:18:54;;;;;;;10.45;8.10;;;;;;;16.86;43.69;99905.53;5094624;28;20105;-66
2023/03/04 05:21:19;;;;;;;9.63;7.80;;;;;;;16.85;44.01;99912.56;5094941;28;20019;-66
2023/03/04 05:23:45;;;;;;;10.23;7.63;;;;;;;16.85;43.73;99912.56;5094388;28;20028;-66
2023/03/04 05:26:14;;;;;;;10.30;7.70;;;;;;;16.84;43.79;99905.59;5094297;28;20446;-67
2023/03/04 05:28:40;;;;;;;9.23;7.60;;;;;;;16.85;43.68;99909.09;5093532;28;20047;-66
2023/03/04 05:31:05;;;;;;;9.65;7.75;;;;;;;16.83;43.89;99916.19;5094686;28;20107;-66
2023/03/04 05:33:31;;;;;;;8.02;6.65;;;;;;;16.79;43.70;99915.44;5094682;28;20036;-66
2023/03/04 05:35:57;;;;;;;10.13;7.93;;;;;;;16.82;43.75;99920.59;5094616;28;20101;-66
2023/03/04 05:38:22;;;;;;;9.57;8.13;;;;;;;16.80;43.83;99914.50;5094039;28;20369;-66
2023/03/04 05:40:49;;;;;;;9.20;7.53;;;;;;;16.83;43.69;99927.59;5094083;28;20027;-66
2023/03/04 05:43:15;;;;;;;9.27;7.57;;;;;;;16.83;43.73;99917.06;5093169;28;20036;-67
2023/03/04 05:45:41;;;;;;;9.02;7.38;;;;;;;16.82;43.95;99931.16;5094463;28;20361;-66
2023/03/04 05:48:07;;;;;;;9.73;7.60;;;;;;;16.79;43.79;99920.69;5094503;28;20028;-66
2023/03/04 05:50:33;;;;;;;9.70;7.68;;;;;;;16.79;43.72;99931.25;5093995;28;20071;-67
2023/03/04 05:52:59;;;;;;;10.02;7.75;;;;;;;16.78;43.82;99924.25;5094161;28;20487;-66
2023/03/04 05:55:26;;;;;;;10.00;7.20;;;;;;;16.77;43.93;99926.03;5093808;28;20020;-66
2023/03/04 05:57:52;;;;;;;9.60;7.50;;;;;;;16.77;43.54;99933.94;5094105;28;20035;-66
2023/03/04 06:00:17;;;;;;;9.75;7.78;;;;;;;16.75;43.78;99930.50;5094048;28;20384;-67
2023/03/04 06:02:43;;;;;;;9.27;7.95;;;;;;;16.73;43.72;99936.72;5094099;28;20024;-66
2023/03/04 06:05:10;;;;;;;9.48;7.43;;;;;;;16.74;43.82;99938.44;5093945;28;20106;-67
2023/03/04 06:07:35;;;;;;;9.43;7.10;;;;;;;16.71;44.03;99935.94;5094018;28;20475;-66
2023/03/04 06:10:01;;;;;;;10.00;7.68;;;;;;;16.72;43.68;99940.28;5093275;28;20039;-66
2023/03/04 06:12:27;;;;;;;9.98;7.40;;;;;;;16.73;43.82;99947.28;5093759;28;20032;-67
2023/03/04 06:14:53;;;;;;;10.32;7.25;;;;;;;16.71;43.80;99946.47;5093707;28;20028;-66
2023/03/04 06:17:18;;;;;;;10.18;7.43;;;;;;;16.68;43.65;99943.94;5093892;28;20047;-66
2023/03/04 06:19:44;;;;;;;8.98;7.25;;;;;;;16.71;43.64;99947.31;5093778;28;20028;-66
2023/03/04 06:22:10;;;;;;;10.20;8.13;;;;;;;16.69;43.76;99953.56;5093599;28;20383;-67
2023/03/04 06:24:35;;;;;;;10.20;7.82;;;;;;;16.64;43.95;99951.09;5093344;28;20028;-67
2023/03/04 06:27:01;;;;;;;10.00;7.43;;;;;;;16.65;43.72;99950.19;5093385;28;20016;-66
2023/03/04 06:29:26;;;;;;;10.48;7.80;;;;;;;16.63;44.02;99958.16;5093482;28;20030;-66
2023/03/04 06:31:52;;;;;;;11.77;8.13;;;;;;;16.64;43.59;99959.88;5093402;28;20035;-66
2023/03/04 06:34:18;;;;;;;9.65;7.95;;;;;;;16.60;43.80;99963.53;5092438;28;20020;-66
2023/03/04 06:36:44;;;;;;;9.52;7.32;;;;;;;16.62;43.55;99972.22;5093210;28;20024;-66
2023/03/04 06:39:09;;;;;;;10.20;7.72;;;;;;;16.61;43.88;99973.13;5092810;28;20111;-65
2023/03/04 06:41:35;;;;;;;9.38;7.50;;;;;;;16.62;43.89;99977.50;5093223;28;20028;-67
2023/03/04 06:44:00;;;;;;;10.32;7.10;;;;;;;16.63;43.64;99973.09;5093314;28;20016;-66
2023/03/04 06:46:26;;;;;;;10.35;7.45;;;;;;;16.60;43.80;99978.44;5093153;28;20024;-67
2023/03/04 06:48:52;;;;;;;9.82;7.82;;;;;;;16.61;43.54;99988.09;5093155;28;20219;-67
2023/03/04 06:51:18;;;;;;;9.90;6.95;;;;;;;16.60;43.67;99986.34;5093424;28;20490;-67
2023/03/04 06:53:43;;;;;;;9.13;7.30;;;;;;;16.59;43.75;99988.16;5092866;28;20561;-66
2023/03/04 06:56:11;;;;;;;9.02;7.05;;;;;;;16.57;43.75;99992.59;5092678;28;20099;-66
2023/03/04 06:58:37;;;;;;;10.32;7.85;;;;;;;16.53;43.77;99995.38;5093032;28;20544;-66
2023/03/04 07:01:18;;;;;;;9.52;7.13;;;;;;;16.54;43.66;100002.38;5092948;28;20028;-66
2023/03/04 07:03:44;;;;;;;9.75;7.47;;;;;;;16.55;43.62;100004.97;5092598;28;20095;-66
2023/03/04 07:06:11;;;;;;;10.82;7.78;;;;;;;16.55;43.96;100004.97;5092849;28;20024;-67
2023/03/04 07:08:37;;;;;;;10.43;7.63;;;;;;;16.56;43.52;100004.03;5091172;28;20415;-66
2023/03/04 07:11:02;;;;;;;10.15;7.60;;;;;;;16.55;43.73;100007.59;5092396;28;20031;-66
2023/03/04 07:13:28;;;;;;;11.30;7.60;;;;;;;16.53;43.78;100006.81;5092673;28;20115;-66
2023/03/04 07:15:53;;;;;;;10.82;7.70;;;;;;;16.51;43.81;100011.25;5092749;28;20055;-66
2023/03/04 07:18:18;;;;;;;10.63;8.57;;;;;;;16.52;43.57;100010.34;5092536;28;20036;-66
2023/03/04 07:20:44;;;;;;;9.95;7.82;;;;;;;16.51;43.54;100012.13;5092716;28;20392;-66
2023/03/04 07:23:09;;;;;;;9.90;7.82;;;;;;;16.50;43.34;100009.53;5091996;28;20024;-67
2023/03/04 07:25:35;;;;;;;10.32;8.20;;;;;;;16.51;43.81;100011.25;5125366;27;20035;-66
2023/03/04 07:28:00;;;;;;;9.80;7.95;;;;;;;16.49;43.63;100015.72;5092867;28;20027;-66
2023/03/04 07:30:26;;;;;;;11.55;9.07;;;;;;;16.50;43.61;100004.25;5092479;28;20028;-66
2023/03/04 07:32:51;;;;;;;10.68;8.40;;;;;;;16.48;43.52;100011.34;5092812;28;20028;-66
2023/03/04 07:35:17;;;;;;;10.55;8.63;;;;;;;16.49;43.44;100016.59;5092827;28;20024;-66
2023/03/04 07:37:42;;;;;;;10.10;8.02;;;;;;;16.48;43.73;100025.38;5092099;28;20277;-66
2023/03/04 07:40:08;;;;;;;10.27;7.97;;;;;;;16.48;43.38;100027.16;5092637;28;20053;-66
2023/03/04 07:42:34;;;;;;;11.00;8.40;;;;;;;16.48;43.69;100027.16;5092387;28;20035;-66
2023/03/04 07:45:00;;;;;;;9.88;7.53;;;;;;;16.45;43.74;100027.25;5092171;28;20024;-66
2023/03/04 07:47:26;;;;;;;10.98;8.05;;;;;;;16.45;43.51;100029.88;5092469;28;20032;-66
2023/03/04 07:49:52;;;;;;;10.32;8.23;;;;;;;16.44;43.50;100030.81;5092002;28;20416;-66
2023/03/04 07:52:18;;;;;;;11.95;8.38;;;;;;;16.44;43.76;100034.31;5091844;28;20035;-66
2023/03/04 07:54:43;;;;;;;10.85;8.57;;;;;;;16.44;43.83;100036.94;5092169;28;20046;-66
2023/03/04 07:57:09;;;;;;;10.55;8.23;;;;;;;16.42;43.38;100041.38;5090949;28;20028;-66
2023/03/04 07:59:34;;;;;;;9.57;7.78;;;;;;;16.43;43.38;100040.50;5092345;28;20024;-66
2023/03/04 08:02:00;;;;;;;10.32;8.38;;;;;;;16.43;43.71;100039.63;5092022;28;20047;-66
2023/03/04 08:04:25;;;;;;;10.38;8.77;;;;;;;16.39;43.53;100038.88;5091838;28;20024;-66
2023/03/04 08:06:50;;;;;;;10.10;7.70;;;;;;;16.38;43.51;100032.72;5092128;28;20024;-67
2023/03/04 08:09:16;;;;;;;11.07;8.15;;;;;;;16.41;43.40;100041.47;5092266;28;20020;-67
2023/03/04 08:11:45;;;;;;;9.60;7.97;;;;;;;16.38;43.55;100045.91;5092132;28;20016;-66
2023/03/04 08:14:11;;;;;;;9.77;7.50;;;;;;;16.37;43.45;100041.53;5091865;28;20024;-66
2023/03/04 08:16:37;;;;;;;9.75;8.23;;;;;;;16.37;43.66;100036.28;5092168;28;20111;-66
2023/03/04 08:19:04;;;;;;;11.35;8.88;;;;;;;16.37;43.63;100036.28;5091766;28;20527;-67
2023/03/04 08:21:30;;;;;;;11.30;9.00;;;;;;;16.37;43.62;100040.69;5092055;28;20081;-67
2023/03/04 08:23:58;;;;;;;10.75;8.88;;;;;;;16.34;43.57;100031.13;5092131;28;20028;-65
2023/03/04 08:26:40;;;;;;;10.95;8.20;;;;;;;16.35;43.29;100040.75;5091803;28;20161;-66
2023/03/04 08:29:06;;;;;;;10.75;8.77;;;;;;;16.35;43.69;100038.09;5091724;28;20020;-65
2023/03/04 08:31:32;;;;;;;11.13;8.93;;;;;;;16.32;43.51;100042.63;5091884;28;20107;-66
2023/03/04 08:33:57;;;;;;;11.55;8.85;;;;;;;16.31;43.43;100044.38;5091590;28;20589;-66
2023/03/04 08:36:23;;;;;;;10.73;8.27;;;;;;;16.33;43.56;100042.53;5091795;28;20024;-67
2023/03/04 08:38:48;;;;;;;11.35;8.75;;;;;;;16.31;43.38;100033.84;5091890;28;20388;-66
2023/03/04 08:41:14;;;;;;;10.93;8.65;;;;;;;16.32;43.51;100034.72;5092090;28;20038;-66
2023/03/04 08:43:40;;;;;;;10.48;8.75;;;;;;;16.34;43.28;100030.25;5091732;28;20091;-66
2023/03/04 08:46:06;;;;;;;10.75;8.85;;;;;;;16.32;43.44;100030.28;5091637;28;20021;-67
2023/03/04 08:48:32;;;;;;;11.82;9.02;;;;;;;16.32;43.54;100038.19;5091337;28;20024;-67
2023/03/04 08:50:57;;;;;;;12.13;9.20;;;;;;;16.31;43.73;100036.47;5091374;28;20143;-66
2023/03/04 08:53:23;;;;;;;11.55;9.07;;;;;;;16.31;43.36;100031.22;5091898;28;20111;-66
2023/03/04 08:55:50;;;;;;;11.32;9.18;;;;;;;16.31;43.31;100036.47;5091490;28;20381;-66
2023/03/04 08:58:15;;;;;;;12.43;9.50;;;;;;;16.32;43.51;100032.94;5094093;28;20036;-66
2023/03/04 09:00:47;;;;;;;12.77;8.40;;;;;;;16.32;43.44;100032.09;5094121;28;20446;-66
2023/03/04 09:03:13;;;;;;;10.68;8.50;;;;;;;16.29;43.59;100040.06;5094921;28;20063;-66
2023/03/04 09:05:39;;;;;;;11.68;9.02;;;;;;;16.33;43.40;100039.91;5095279;28;20039;-66
2023/03/04 09:08:05;;;;;;;10.65;8.50;;;;;;;16.35;43.41;100043.38;5094966;28;20116;-66
2023/03/04 09:10:30;;;;;;;12.35;8.85;;;;;;;16.34;43.60;100036.38;5094971;28;20118;-66
2023/03/04 09:12:57;;;;;;;10.90;8.98;;;;;;;16.32;43.57;100037.34;5095118;28;20031;-66
2023/03/04 09:15:22;;;;;;;10.93;8.57;;;;;;;16.34;43.68;100036.38;5095017;28;20059;-66
2023/03/04 09:17:48;;;;;;;10.93;8.30;;;;;;;16.35;43.49;100038.09;5094838;28;20036;-67
2023/03/04 09:20:13;;;;;;;10.43;8.32;;;;;;;16.37;43.40;100038.06;5094802;28;20020;-66
2023/03/04 09:22:40;;;;;;;9.50;7.75;;;;;;;16.38;43.68;100037.16;5095020;28;20016;-66
2023/03/04 09:25:06;;;;;;;10.70;7.82;;;;;;;16.38;43.48;100040.63;5093321;28;20016;-66
2023/03/04 09:27:32;;;;;;;10.38;7.95;;;;;;;16.37;43.44;100040.69;5093554;28;20052;-66
2023/03/04 09:29:57;;;;;;;10.05;7.28;;;;;;;16.38;43.39;100032.72;5094866;28;20081;-66
2023/03/04 09:32:23;;;;;;;9.98;8.52;;;;;;;16.38;43.45;100038.00;5094451;28;20391;-66
2023/03/04 09:34:48;;;;;;;9.55;7.68;;;;;;;16.37;43.68;100035.44;5093356;28;20499;-66
2023/03/04 09:37:14;;;;;;;10.40;7.72;;;;;;;16.40;43.68;100034.44;5094694;28;20521;-67
2023/03/04 09:39:39;;;;;;;10.65;8.65;;;;;;;16.42;43.50;100045.81;5094536;28;20077;-66
2023/03/04 09:42:08;;;;;;;11.52;8.48;;;;;;;16.38;43.26;100037.16;5094563;28;20020;-66
2023/03/04 09:44:38;;;;;;;10.80;7.97;;;;;;;16.42;43.66;100040.53;5095003;28;20035;-66
2023/03/04 09:47:11;;;;;;;10.68;8.77;;;;;;;16.44;43.37;100036.06;5094289;28;20031;-67
2023/03/04 09:49:39;;;;;;;10.68;8.15;;;;;;;16.46;43.48;100034.28;5094334;28;20508;-66
2023/03/04 09:52:20;;;;;;;10.48;9.07;;;;;;;16.46;43.51;100040.38;5094386;28;20035;-66
2023/03/04 09:55:04;;;;;;;10.02;7.40;;;;;;;16.49;43.67;100034.16;5092968;28;20426;-67
2023/03/04 09:57:42;;;;;;;9.80;7.80;;;;;;;16.47;43.40;100033.34;5094145;28;20020;-67
2023/03/04 10:00:21;;;;;;;9.80;7.93;;;;;;;16.48;43.50;100033.28;5094215;28;20496;-67
2023/03/04 10:03:11;;;;;;;10.85;8.52;;;;;;;16.51;43.62;100032.31;5093611;28;20026;-67
2023/03/04 10:05:42;;;;;;;10.35;8.18;;;;;;;16.52;43.61;100036.69;5094080;28;20063;-66
2023/03/04 10:08:26;;;;;;;9.48;7.60;;;;;;;16.52;43.47;100031.44;5094065;28;20110;-66
2023/03/04 10:10:55;;;;;;;10.95;8.10;;;;;;;16.51;43.58;100037.59;5093877;28;20107;-66
2023/03/04 10:13:56;;;;;;;10.57;7.53;;;;;;;16.52;43.82;100034.06;5093768;28;20024;-67
2023/03/04 10:16:28;;;;;;;10.50;8.00;;;;;;;16.53;43.49;100030.50;5090670;28;20082;-66
2023/03/04 10:19:14;;;;;;;9.88;8.00;;;;;;;16.52;43.51;100028.78;5093689;28;20107;-66
2023/03/04 10:21:48;;;;;;;11.60;7.75;;;;;;;16.53;43.85;100027.88;5093892;28;20099;-67
2023/03/04 10:24:21;;;;;;;8.95;7.00;;;;;;;16.54;43.69;100019.06;5093523;28;20081;-66
2023/03/04 10:26:52;;;;;;;10.38;8.10;;;;;;;16.57;43.30;100018.09;5093663;28;20073;-66
2023/03/04 10:29:20;;;;;;;9.32;7.30;;;;;;;16.58;43.57;100023.31;5093441;28;20032;-66
2023/03/04 10:31:48;;;;;;;9.70;7.80;;;;;;;16.56;43.68;100014.59;5093170;28;20030;-66
2023/03/04 10:34:15;;;;;;;9.93;8.13;;;;;;;16.57;43.53;100011.03;5093003;28;20020;-67
2023/03/04 10:36:50;;;;;;;10.35;8.10;;;;;;;16.58;43.67;100012.78;5093584;28;20051;-66
2023/03/04 10:39:32;;;;;;;9.13;7.80;;;;;;;16.59;43.40;100009.22;5092840;28;20020;-67
2023/03/04 10:42:05;;;;;;;9.98;7.95;;;;;;;16.61;43.58;100012.66;5093315;28;20051;-67
2023/03/04 10:44:33;;;;;;;9.25;7.60;;;;;;;16.60;43.40;100010.94;5092881;28;20024;-67
2023/03/04 10:46:59;;;;;;;10.32;8.25;;;;;;;16.61;43.67;100007.41;5093201;28;20031;-66
2023/03/04 10:49:26;;;;;;;10.55;8.30;;;;;;;16.63;43.47;100000.31;5093061;28;20055;-67
2023/03/04 10:52:29;;;;;;;8.98;7.40;;;;;;;16.63;43.56;100005.59;5093227;28;20032;-66
2023/03/04 10:55:04;;;;;;;9.48;7.55;;;;;;;16.65;43.42;100005.50;5086045;28;20036;-67
2023/03/04 10:57:39;;;;;;;10.18;8.15;;;;;;;16.64;43.39;100007.31;5092944;28;20043;-67
2023/03/04 11:00:16;;;;;;;10.13;7.88;;;;;;;16.64;43.74;99996.75;5092632;28;20557;-67
2023/03/04 11:02:42;;;;;;;11.98;7.97;;;;;;;16.64;43.56;100001.16;5092791;28;20035;-66
2023/03/04 11:05:13;;;;;;;9.98;7.88;;;;;;;16.67;43.57;99994.94;5092961;28;20468;-66
2023/03/04 11:07:45;;;;;;;10.13;8.27;;;;;;;16.68;43.57;99991.38;5092753;28;20119;-66
2023/03/04 11:10:24;;;;;;;11.35;8.70;;;;;;;16.67;43.59;99987.03;5092577;28;20545;-67
2023/03/04 11:12:51;;;;;;;12.27;9.02;;;;;;;16.69;43.36;99990.44;5092807;28;20028;-67
2023/03/04 11:15:26;;;;;;;11.65;8.70;;;;;;;16.69;43.38;99977.28;5092430;28;20028;-70
2023/03/04 11:18:09;;;;;;;12.40;10.02;;;;;;;16.72;43.53;99982.44;5092612;28;20476;-70
2023/03/04 11:20:47;;;;;;;10.98;8.55;;;;;;;16.72;43.62;99977.19;5092342;28;20395;-70
2023/03/04 11:23:34;;;;;;;13.88;8.88;;;;;;;16.74;43.36;99977.97;5092765;28;20020;-70